メインページ
METAR-TAF:

METAR-TAF

空港 :

ボゴタ, コロンビア

エルドラド国際空港

緯度: 04-43N, 経度: 074-09W, 海抜: 2547m

現時点の気象観測

当レポートは14分前の19:00(UTC)に作成
西/北西の風 7kt
気温 15°C
湿度 63%
気圧 1027 hPa
視程10km以上
高度1700ftの千切れ雲あり
高度7000ftの雲は散在している
近辺でにわか雨

METAR: SKBO 251900Z 30007KT 9999 VCSH BKN017 SCT070 15/08 A3032 RMK VCSH/S

時間: 14:14 (19:14 UTC)

予報

当レポートは2時間14分前の17:00(UTC)に作成
予報は25日の 18時(UTC)から 26日の 18時(UTC)まで有効
変向風 2kt
視程: 8000m
高度1700ftの雲は散在している
高度6000ftの千切れ雲あり
近辺でにわか雨
25日の 19時(UTC)から 25日の 21時(UTC)まで徐々に
西/北西の風 12kt
視程: 9000m
25日の 21時(UTC)から 26日の 02時(UTC)まで一時的に
視程: 5000m
高度1700ftの雲は散在している, 積乱雲.
霧雨, 雨
26日の 02時(UTC)から 26日の 04時(UTC)まで徐々に
高度2000ftの千切れ雲あり
26日の 09時(UTC)から 26日の 13時(UTC)まで一時的に
視程: 5000m
靄, 霧雨

TAF: SKBO 251700Z 2518/2618 VRB02KT 8000 VCSH SCT017 BKN060 BECMG 2519/2521 29012KT 9000 TEMPO 2521/2602 5000 DZRA SCT017CB BECMG 2602/2604 BKN020 TEMPO 2609/2613 5000 BR DZ TX20/2518Z TN05/2611Z

4,000以上の空港の気象観測と天気予報(METAR報とTAF報)

利用可能な観測所は地図上に黄色い丸と赤い丸で示す。

丸の上にカーソルを重ねると観測所名を参照できる。

次にクリックすると気象観測と天気予報を参照できる。

マップの切り替え:黒色「×」印の緑ボタンをクリックして拡大、「-」印の緑ボタンをクリックして縮小、緑色の三角印をクリックして隣りの地図に切り替え


METAR-TAF: